createdAt,value
2022-11-18T00:02:15.958Z,99766.78
2022-11-18T00:04:43.140Z,99774.66
2022-11-18T00:07:09.853Z,99765.97
2022-11-18T00:09:37.357Z,99768.56
2022-11-18T00:12:23.287Z,99761.59
2022-11-18T00:14:49.947Z,99760.75
2022-11-18T00:17:16.639Z,99762.44
2022-11-18T00:19:43.765Z,99759.81
2022-11-18T00:22:12.656Z,99762.38
2022-11-18T00:24:39.288Z,99765.88
2022-11-18T00:27:06.465Z,99765.88
2022-11-18T00:29:33.138Z,99770.22
2022-11-18T00:31:59.782Z,99754.59
2022-11-18T00:34:27.417Z,99764.13
2022-11-18T00:36:56.070Z,99765.84
2022-11-18T00:39:24.098Z,99763.22
2022-11-18T00:42:09.477Z,99774.53
2022-11-18T00:44:36.976Z,99776.25
2022-11-18T00:47:03.992Z,99772.69
2022-11-18T00:49:30.824Z,99770.97
2022-11-18T00:51:57.601Z,99769.28
2022-11-18T00:54:24.476Z,99771.00
2022-11-18T00:56:51.345Z,99764.97
2022-11-18T00:59:20.684Z,99781.44
2022-11-18T01:01:49.109Z,99782.28
2022-11-18T01:04:16.195Z,99785.78
2022-11-18T01:06:42.845Z,99790.84
2022-11-18T01:09:09.534Z,99797.00
2022-11-18T01:11:54.737Z,99790.03
2022-11-18T01:14:24.285Z,99784.84
2022-11-18T01:16:54.202Z,99784.84
2022-11-18T01:19:20.957Z,99797.81
2022-11-18T01:21:47.585Z,99789.13
2022-11-18T01:24:14.342Z,99796.88
2022-11-18T01:26:41.410Z,99789.94
2022-11-18T01:29:08.691Z,99791.72
2022-11-18T01:31:35.367Z,99776.91
2022-11-18T01:34:02.008Z,99780.41
2022-11-18T01:36:28.660Z,99763.03
2022-11-18T01:38:55.977Z,99769.09
2022-11-18T01:41:26.362Z,99767.41
2022-11-18T01:44:01.450Z,99770.88
2022-11-18T01:46:30.483Z,99773.47
2022-11-18T01:49:02.561Z,99775.19
2022-11-18T01:51:33.762Z,99777.81
2022-11-18T01:54:06.632Z,99782.13
2022-11-18T01:56:38.180Z,99790.84
2022-11-18T01:59:11.811Z,99793.44
2022-11-18T02:01:38.530Z,99795.22
2022-11-18T02:04:06.179Z,99789.16
2022-11-18T02:06:33.423Z,99791.72
2022-11-18T02:09:00.451Z,99791.59
2022-11-18T02:11:45.869Z,99789.78
2022-11-18T02:14:13.450Z,99785.50
2022-11-18T02:17:22.804Z,99778.56
2022-11-18T02:19:58.421Z,99779.41
2022-11-18T02:22:46.376Z,99774.28
2022-11-18T02:25:40.741Z,99776.72
2022-11-18T02:28:29.160Z,99779.34
2022-11-18T02:31:21.083Z,99785.44
2022-11-18T02:33:57.466Z,99777.56
2022-11-18T02:36:49.062Z,99785.16
2022-11-18T02:39:20.843Z,99772.13
2022-11-18T02:41:48.103Z,99778.31
2022-11-18T02:44:16.691Z,99782.69
2022-11-18T02:46:46.819Z,99775.78
2022-11-18T02:49:18.552Z,99778.38
2022-11-18T02:51:46.228Z,99778.38
2022-11-18T02:54:13.833Z,99781.84
2022-11-18T02:56:41.339Z,99786.25
2022-11-18T02:59:07.960Z,99788.81
2022-11-18T03:01:35.975Z,99786.84
2022-11-18T03:04:02.785Z,99787.75
2022-11-18T03:06:43.772Z,99785.06
2022-11-18T03:09:37.154Z,99791.06
2022-11-18T03:12:31.147Z,99806.63
2022-11-18T03:15:10.694Z,99797.06
2022-11-18T03:17:48.842Z,99797.19
2022-11-18T03:20:23.352Z,99801.44
2022-11-18T03:23:08.860Z,99807.50
2022-11-18T03:25:47.823Z,99800.59
2022-11-18T03:28:37.844Z,99802.25
2022-11-18T03:31:12.452Z,99805.78
2022-11-18T03:33:52.159Z,99806.72
2022-11-18T03:36:21.277Z,99815.38
2022-11-18T03:38:51.427Z,99806.72
2022-11-18T03:41:18.964Z,99809.31
2022-11-18T03:43:53.634Z,99816.16
2022-11-18T03:46:39.130Z,99817.13
2022-11-18T03:49:08.139Z,99811.13
2022-11-18T03:51:42.685Z,99816.94
2022-11-18T03:54:16.485Z,99820.53
2022-11-18T03:56:47.586Z,99817.88
2022-11-18T03:59:34.670Z,99823.00
2022-11-18T04:02:07.149Z,99818.66
2022-11-18T04:04:33.835Z,99821.88
2022-11-18T04:07:10.125Z,99833.34
2022-11-18T04:09:46.059Z,99825.56
2022-11-18T04:12:16.067Z,99836.66
2022-11-18T04:14:44.295Z,99838.41
2022-11-18T04:17:16.288Z,99833.19
2022-11-18T04:19:42.946Z,99837.59
2022-11-18T04:22:10.106Z,99847.13
2022-11-18T04:24:36.821Z,99840.13
2022-11-18T04:27:04.270Z,99835.88
2022-11-18T04:29:31.521Z,99840.03
2022-11-18T04:31:58.884Z,99843.59
2022-11-18T04:34:25.621Z,99845.16
2022-11-18T04:36:52.332Z,99856.34
2022-11-18T04:39:19.987Z,99855.38
2022-11-18T04:41:55.704Z,99849.03
2022-11-18T04:44:33.280Z,99847.47
2022-11-18T04:47:05.464Z,99852.56
2022-11-18T04:49:32.363Z,99850.63
2022-11-18T04:51:59.476Z,99864.25
2022-11-18T04:54:27.041Z,99862.59
2022-11-18T04:56:54.766Z,99862.47
2022-11-18T04:59:24.221Z,99870.03
2022-11-18T05:01:51.634Z,99869.41
2022-11-18T05:04:21.558Z,99868.53
2022-11-18T05:06:48.637Z,99878.81
2022-11-18T05:09:16.235Z,99875.91
2022-11-18T05:12:01.723Z,99880.81
2022-11-18T05:14:29.429Z,99888.06
2022-11-18T05:16:57.105Z,99890.72
2022-11-18T05:19:23.895Z,99886.91
2022-11-18T05:21:50.890Z,99890.34
2022-11-18T05:24:17.743Z,99896.47
2022-11-18T05:26:44.398Z,99906.00
2022-11-18T05:29:11.185Z,99908.56
2022-11-18T05:31:37.914Z,99909.34
2022-11-18T05:34:04.708Z,99906.75
2022-11-18T05:36:31.342Z,99908.41
2022-11-18T05:39:01.351Z,99909.44
2022-11-18T05:41:46.552Z,99919.03
2022-11-18T05:44:13.195Z,99913.22
2022-11-18T05:46:39.874Z,99914.88
2022-11-18T05:49:07.373Z,99914.91
2022-11-18T05:51:34.412Z,99918.28
2022-11-18T05:54:03.341Z,99915.75
2022-11-18T05:56:38.911Z,99923.50
2022-11-18T05:59:06.087Z,99929.63
2022-11-18T06:01:51.643Z,99928.53
2022-11-18T06:04:23.891Z,99924.31
2022-11-18T06:06:52.488Z,99922.63
2022-11-18T06:09:21.743Z,99935.25
2022-11-18T06:11:53.293Z,99939.44
2022-11-18T06:14:23.952Z,99941.06
2022-11-18T06:16:55.595Z,99941.25
2022-11-18T06:19:22.564Z,99943.09
2022-11-18T06:21:49.462Z,99952.59
2022-11-18T06:24:17.118Z,99951.84
2022-11-18T06:26:44.040Z,99952.81
2022-11-18T06:29:13.419Z,99950.97
2022-11-18T06:31:39.985Z,99952.72
2022-11-18T06:34:06.597Z,99963.06
2022-11-18T06:36:33.216Z,99972.69
2022-11-18T06:39:06.993Z,99971.19
2022-11-18T06:41:34.097Z,99971.28
2022-11-18T06:44:01.007Z,99980.81
2022-11-18T06:46:46.211Z,99986.03
2022-11-18T06:49:12.949Z,99984.53
2022-11-18T06:51:40.170Z,99993.19
2022-11-18T06:54:10.700Z,99993.25
2022-11-18T06:56:37.827Z,99995.94
2022-11-18T06:59:04.783Z,99996.94
2022-11-18T07:01:34.500Z,99989.22
2022-11-18T07:04:01.845Z,99999.50
2022-11-18T07:06:30.384Z,100005.69
2022-11-18T07:08:57.631Z,99998.13
2022-11-18T07:11:26.132Z,99993.81
2022-11-18T07:13:53.192Z,100012.09
2022-11-18T07:16:22.215Z,100010.56
2022-11-18T07:18:50.309Z,100010.44
2022-11-18T07:21:19.255Z,100012.22
2022-11-18T07:23:46.525Z,100014.94
2022-11-18T07:26:13.737Z,100014.78
2022-11-18T07:28:40.646Z,100020.66
2022-11-18T07:31:13.448Z,100014.66
2022-11-18T07:33:41.189Z,100015.66
2022-11-18T07:36:19.183Z,100020.19
2022-11-18T07:38:46.187Z,100029.72
2022-11-18T07:41:19.160Z,100032.19
2022-11-18T07:43:46.413Z,100038.38
2022-11-18T07:46:14.369Z,100040.16
2022-11-18T07:48:42.091Z,100034.94
2022-11-18T07:51:10.160Z,100038.28
2022-11-18T07:53:37.133Z,100045.94
2022-11-18T07:56:04.752Z,100055.41
2022-11-18T07:58:31.443Z,100052.94
2022-11-18T08:00:58.132Z,100052.97
2022-11-18T08:03:26.715Z,100048.00
2022-11-18T08:05:54.869Z,100052.22
2022-11-18T08:08:21.740Z,100059.88
2022-11-18T08:10:48.354Z,100065.16
2022-11-18T08:13:15.005Z,100070.81
2022-11-18T08:15:42.732Z,100073.34
2022-11-18T08:18:13.540Z,100079.63
2022-11-18T08:20:40.803Z,100074.22
2022-11-18T08:23:13.091Z,100061.41
2022-11-18T08:25:42.203Z,100086.38
2022-11-18T08:28:09.705Z,100078.84
2022-11-18T08:30:36.647Z,100083.94
2022-11-18T08:33:03.793Z,100076.22
2022-11-18T08:35:32.316Z,100086.66
2022-11-18T08:37:59.754Z,100082.31
2022-11-18T08:40:27.428Z,100086.00
2022-11-18T08:42:54.379Z,100084.16
2022-11-18T08:45:21.006Z,100092.81
2022-11-18T08:47:47.644Z,100098.03
2022-11-18T08:50:14.278Z,100092.78
2022-11-18T08:52:40.897Z,100088.53
2022-11-18T08:55:07.682Z,100085.38
2022-11-18T08:57:34.264Z,100082.00
2022-11-18T09:00:01.024Z,100095.69
2022-11-18T09:02:27.694Z,100096.84
2022-11-18T09:04:54.367Z,100095.22
2022-11-18T09:07:21.764Z,100092.75
2022-11-18T09:09:48.527Z,100088.41
2022-11-18T09:12:17.451Z,100090.91
2022-11-18T09:17:34.711Z,100096.56
2022-11-18T09:20:01.369Z,100083.63
2022-11-18T09:22:28.035Z,100093.25
2022-11-18T09:24:54.685Z,100096.94
2022-11-18T09:27:21.297Z,100100.28
2022-11-18T09:29:47.934Z,100103.16
2022-11-18T09:32:14.637Z,100100.81
2022-11-18T09:34:41.291Z,100109.59
2022-11-18T09:37:07.949Z,100110.41
2022-11-18T09:39:36.436Z,100104.50
2022-11-18T09:42:23.742Z,100113.38
2022-11-18T09:45:24.583Z,100113.25
2022-11-18T09:47:52.085Z,100117.94
2022-11-18T09:53:25.735Z,100120.56
2022-11-18T09:55:52.832Z,100117.19
2022-11-18T09:58:33.119Z,100119.56
2022-11-18T10:01:00.302Z,100126.50
2022-11-18T10:03:29.744Z,100113.16
2022-11-18T10:06:09.464Z,100117.50
2022-11-18T10:08:41.328Z,100133.16
2022-11-18T10:11:17.623Z,100131.19
2022-11-18T10:13:57.225Z,100137.19
2022-11-18T10:16:33.151Z,100137.25
2022-11-18T10:19:12.354Z,100137.78
2022-11-18T10:21:47.941Z,100141.28
2022-11-18T10:24:23.889Z,100142.31
2022-11-18T10:26:56.826Z,100148.44
2022-11-18T10:29:23.837Z,100148.69
2022-11-18T10:31:59.482Z,100153.66
2022-11-18T10:34:29.307Z,100143.91
2022-11-18T10:37:28.165Z,100144.22
2022-11-18T10:40:06.491Z,100139.13
2022-11-18T10:42:42.846Z,100149.88
2022-11-18T10:45:21.640Z,100140.56
2022-11-18T10:48:17.282Z,100148.41
2022-11-18T10:50:54.763Z,100147.75
2022-11-18T10:53:35.435Z,100143.25
2022-11-18T10:56:08.360Z,100143.19
2022-11-18T10:58:37.666Z,100140.00
2022-11-18T11:01:09.041Z,100141.91
2022-11-18T11:03:37.961Z,100137.47
2022-11-18T11:06:30.724Z,100136.69
2022-11-18T11:09:30.413Z,100143.41
2022-11-18T11:12:04.644Z,100148.75
2022-11-18T11:14:58.331Z,100142.75
2022-11-18T11:17:31.709Z,100136.84
2022-11-18T11:20:14.660Z,100149.69
2022-11-18T11:22:42.465Z,100152.38
2022-11-18T11:25:20.256Z,100152.47
2022-11-18T11:28:24.084Z,100162.16
2022-11-18T11:31:13.719Z,100158.66
2022-11-18T11:33:57.457Z,100161.16
2022-11-18T11:37:01.555Z,100153.44
2022-11-18T11:39:54.471Z,100156.09
2022-11-18T11:42:40.532Z,100159.66
2022-11-18T11:45:48.112Z,100166.53
2022-11-18T11:48:23.745Z,100161.91
2022-11-18T11:51:04.955Z,100155.22
2022-11-18T11:54:10.307Z,100155.31
2022-11-18T11:56:38.820Z,100144.06
2022-11-18T11:59:06.529Z,100155.34
2022-11-18T12:01:41.461Z,100143.22
2022-11-18T12:04:29.822Z,100152.75
2022-11-18T12:06:57.948Z,100153.50
2022-11-18T12:09:33.549Z,100147.47
2022-11-18T12:12:36.005Z,100148.31
2022-11-18T12:15:14.703Z,100154.41
2022-11-18T12:17:50.268Z,100151.75
2022-11-18T12:20:36.432Z,100162.28
2022-11-18T12:23:12.315Z,100159.75
2022-11-18T12:25:48.012Z,100162.25
2022-11-18T12:28:33.086Z,100163.06
2022-11-18T12:31:18.114Z,100163.06
2022-11-18T12:34:02.504Z,100162.31
2022-11-18T12:36:39.985Z,100151.81
2022-11-18T12:39:27.927Z,100159.56
2022-11-18T12:42:20.627Z,100158.75
2022-11-18T12:44:51.703Z,100179.63
2022-11-18T12:47:41.293Z,100176.91
2022-11-18T12:50:10.316Z,100181.13
2022-11-18T12:52:36.853Z,100192.47
2022-11-18T12:55:04.930Z,100192.47
2022-11-18T12:57:33.922Z,100190.69
2022-11-18T13:00:29.795Z,100190.66
2022-11-18T13:02:58.696Z,100201.97
2022-11-18T13:05:30.231Z,100204.53
2022-11-18T13:08:14.609Z,100206.25
2022-11-18T13:10:50.530Z,100206.19
2022-11-18T13:13:34.042Z,100220.13
2022-11-18T13:16:38.860Z,100216.50
2022-11-18T13:19:05.810Z,100220.88
2022-11-18T13:21:54.099Z,100216.53
2022-11-18T13:24:22.483Z,100220.00
2022-11-18T13:26:54.817Z,100220.00
2022-11-18T13:29:36.521Z,100223.47
2022-11-18T13:32:21.777Z,100231.06
2022-11-18T13:34:50.835Z,100223.47
2022-11-18T13:37:28.866Z,100215.59
2022-11-18T13:39:55.585Z,100218.25
2022-11-18T13:42:26.937Z,100210.31
2022-11-18T13:44:55.555Z,100216.38
2022-11-18T13:47:45.338Z,100225.13
2022-11-18T13:50:17.347Z,100226.00
2022-11-18T13:52:48.666Z,100229.38
2022-11-18T13:55:20.173Z,100235.41
2022-11-18T13:57:49.371Z,100227.59
2022-11-18T14:00:29.849Z,100242.25
2022-11-18T14:03:02.718Z,100238.00
2022-11-18T14:05:29.643Z,100244.06
2022-11-18T14:08:02.522Z,100241.38
2022-11-18T14:10:34.099Z,100245.63
2022-11-18T14:13:17.619Z,100248.22
2022-11-18T14:15:44.665Z,100259.31
2022-11-18T14:18:34.636Z,100261.81
2022-11-18T14:21:02.844Z,100262.03
2022-11-18T14:23:32.106Z,100267.91
2022-11-18T14:26:03.563Z,100269.63
2022-11-18T14:28:37.153Z,100273.00
2022-11-18T14:31:23.564Z,100276.25
2022-11-18T14:34:17.372Z,100279.72
2022-11-18T14:36:45.010Z,100281.41
2022-11-18T14:39:28.908Z,100289.97
2022-11-18T14:41:56.442Z,100288.84
2022-11-18T14:44:27.102Z,100294.94
2022-11-18T14:47:22.889Z,100304.31
2022-11-18T14:49:49.593Z,100303.06
2022-11-18T14:52:16.392Z,100305.84
2022-11-18T14:54:43.022Z,100311.59
2022-11-18T14:57:15.008Z,100313.97
2022-11-18T14:59:41.944Z,100312.94
2022-11-18T15:02:16.773Z,100322.44
2022-11-18T15:04:43.571Z,100318.06
2022-11-18T15:07:18.599Z,100321.47
2022-11-18T15:09:49.770Z,100319.38
2022-11-18T15:12:16.348Z,100321.00
2022-11-18T15:14:43.079Z,100334.47
2022-11-18T15:17:12.361Z,100337.72
2022-11-18T15:19:40.787Z,100342.91
2022-11-18T15:22:07.895Z,100344.13
2022-11-18T15:24:34.519Z,100349.31
2022-11-18T15:27:05.145Z,100342.13
2022-11-18T15:29:31.927Z,100341.16
2022-11-18T15:31:59.931Z,100337.78
2022-11-18T15:34:26.524Z,100342.03
2022-11-18T15:36:53.409Z,100340.91
2022-11-18T15:39:22.884Z,100345.13
2022-11-18T15:41:49.605Z,100348.28
2022-11-18T15:44:16.831Z,100349.91
2022-11-18T15:46:45.466Z,100344.16
2022-11-18T15:49:16.360Z,100359.56
2022-11-18T15:51:43.102Z,100359.22
2022-11-18T15:54:09.893Z,100360.44
2022-11-18T15:56:37.547Z,100365.31
2022-11-18T15:59:06.366Z,100372.38
2022-11-18T16:01:35.560Z,100371.97
2022-11-18T16:04:03.677Z,100371.72
2022-11-18T16:06:30.382Z,100372.06
2022-11-18T16:09:00.003Z,100373.25
2022-11-18T16:11:47.495Z,100376.34
2022-11-18T16:14:16.095Z,100379.38
2022-11-18T16:16:43.855Z,100375.88
2022-11-18T16:19:13.335Z,100398.03
2022-11-18T16:21:47.021Z,100393.53
2022-11-18T16:24:25.768Z,100402.41
2022-11-18T16:26:52.941Z,100394.19
2022-11-18T16:29:20.772Z,100398.25
2022-11-18T16:31:55.203Z,100396.91
2022-11-18T16:34:26.717Z,100404.22
2022-11-18T16:36:55.061Z,100397.41
2022-11-18T16:39:26.604Z,100398.56
2022-11-18T16:41:54.687Z,100404.88
2022-11-18T16:44:21.525Z,100407.63
2022-11-18T16:46:50.083Z,100411.00
2022-11-18T16:49:18.836Z,100417.63
2022-11-18T16:51:47.783Z,100418.88
2022-11-18T16:54:33.529Z,100422.06
2022-11-18T16:57:00.126Z,100426.94
2022-11-18T16:59:28.775Z,100436.78
2022-11-18T17:01:56.957Z,100416.66
2022-11-18T17:04:24.681Z,100434.06
2022-11-18T17:06:51.498Z,100437.34
2022-11-18T17:09:20.583Z,100433.69
2022-11-18T17:11:48.036Z,100431.16
2022-11-18T17:14:14.780Z,100441.81
2022-11-18T17:16:41.697Z,100440.28
2022-11-18T17:19:13.162Z,100447.84
2022-11-18T17:21:41.191Z,100453.66
2022-11-18T17:24:08.458Z,100456.72
2022-11-18T17:26:35.122Z,100446.19
2022-11-18T17:29:01.810Z,100448.25
2022-11-18T17:31:29.084Z,100450.75
2022-11-18T17:33:56.344Z,100457.44
2022-11-18T17:36:25.383Z,100464.28
2022-11-18T17:38:54.062Z,100467.31
2022-11-18T17:41:41.452Z,100461.94
2022-11-18T17:44:09.860Z,100471.31
2022-11-18T17:46:38.518Z,100466.97
2022-11-18T17:49:10.004Z,100463.56
2022-11-18T17:51:36.673Z,100471.44
2022-11-18T17:54:03.276Z,100476.06
2022-11-18T17:56:29.901Z,100472.34
2022-11-18T17:58:56.506Z,100475.47
2022-11-18T18:01:23.550Z,100476.78
2022-11-18T18:03:50.180Z,100479.50
2022-11-18T18:06:19.090Z,100480.41
2022-11-18T18:08:45.781Z,100481.03
2022-11-18T18:11:17.532Z,100481.78
2022-11-18T18:14:03.150Z,100486.81
2022-11-18T18:16:32.224Z,100486.81
2022-11-18T18:19:00.079Z,100487.19
2022-11-18T18:21:27.226Z,100493.94
2022-11-18T18:23:53.938Z,100497.34
2022-11-18T18:26:20.569Z,100493.41
2022-11-18T18:28:47.195Z,100495.16
2022-11-18T18:31:15.261Z,100501.22
2022-11-18T18:33:44.741Z,100505.41
2022-11-18T18:36:14.230Z,100508.91
2022-11-18T18:38:41.371Z,100507.56
2022-11-18T18:41:10.614Z,100512.88
2022-11-18T18:43:37.229Z,100508.25
2022-11-18T18:46:29.298Z,100513.59
2022-11-18T18:49:12.207Z,100507.63
2022-11-18T18:51:43.456Z,100521.22
2022-11-18T18:54:11.752Z,100523.78
2022-11-18T18:56:41.264Z,100521.28
2022-11-18T18:59:08.424Z,100530.50
2022-11-18T19:01:35.849Z,100529.78
2022-11-18T19:04:05.278Z,100537.41
2022-11-18T19:06:57.883Z,100527.91
2022-11-18T19:09:20.893Z,100532.34
2022-11-18T19:12:07.487Z,100540.88
2022-11-18T19:14:36.593Z,100542.47
2022-11-18T19:17:10.107Z,100542.53
2022-11-18T19:19:57.504Z,100548.31
2022-11-18T19:22:25.163Z,100543.16
2022-11-18T19:24:52.407Z,100548.81
2022-11-18T19:27:19.840Z,100551.13
2022-11-18T19:29:46.998Z,100555.84
2022-11-18T19:32:13.933Z,100560.63
2022-11-18T19:34:40.636Z,100561.38
2022-11-18T19:37:07.370Z,100558.84
2022-11-18T19:39:35.244Z,100565.53
2022-11-18T19:42:01.924Z,100568.47
2022-11-18T19:44:28.530Z,100569.41
2022-11-18T19:46:55.230Z,100572.88
2022-11-18T19:49:22.067Z,100571.25
2022-11-18T19:51:49.141Z,100581.38
2022-11-18T19:54:15.746Z,100583.00
2022-11-18T19:56:42.446Z,100589.41
2022-11-18T19:59:09.159Z,100588.69
2022-11-18T20:01:35.925Z,100583.13
2022-11-18T20:04:03.124Z,100594.88
2022-11-18T20:06:29.961Z,100587.09
2022-11-18T20:08:57.173Z,100599.00
2022-11-18T20:11:24.031Z,100595.44
2022-11-18T20:13:50.966Z,100606.66
2022-11-18T20:16:24.995Z,100601.22
2022-11-18T20:18:56.556Z,100608.16
2022-11-18T20:21:26.388Z,100596.84
2022-11-18T20:24:01.028Z,100591.31
2022-11-18T20:26:35.073Z,100605.53
2022-11-18T20:29:02.261Z,100606.91
2022-11-18T20:31:29.205Z,100609.97
2022-11-18T20:33:56.499Z,100610.75
2022-11-18T20:36:25.229Z,100609.03
2022-11-18T20:38:57.061Z,100612.81
2022-11-18T20:41:26.908Z,100615.63
2022-11-18T20:43:53.671Z,100618.19
2022-11-18T20:46:21.913Z,100626.47
2022-11-18T20:48:52.217Z,100622.97
2022-11-18T20:51:21.052Z,100631.22
2022-11-18T20:53:47.915Z,100632.88
2022-11-18T20:56:17.309Z,100633.47
2022-11-18T20:58:44.535Z,100629.69
2022-11-18T21:01:30.114Z,100635.47
2022-11-18T21:03:58.758Z,100639.56
2022-11-18T21:06:27.677Z,100640.31
2022-11-18T21:08:58.525Z,100636.94
2022-11-18T21:11:25.613Z,100634.44
2022-11-18T21:14:11.336Z,100636.28
2022-11-18T21:16:37.996Z,100634.91
2022-11-18T21:19:04.739Z,100641.81
2022-11-18T21:21:48.870Z,100641.47
2022-11-18T21:24:17.681Z,100646.47
2022-11-18T21:26:45.796Z,100652.09
2022-11-18T21:29:13.833Z,100649.41
2022-11-18T21:31:40.790Z,100653.72
2022-11-18T21:34:10.438Z,100652.03
2022-11-18T21:36:41.473Z,100653.41
2022-11-18T21:39:11.997Z,100650.84
2022-11-18T21:41:39.112Z,100662.84
2022-11-18T21:44:09.194Z,100657.31
2022-11-18T21:46:37.558Z,100662.41
2022-11-18T21:49:05.223Z,100650.44
2022-11-18T21:51:33.113Z,100653.22
2022-11-18T21:54:01.035Z,100663.22
2022-11-18T21:56:30.582Z,100668.13
2022-11-18T21:58:59.026Z,100658.59
2022-11-18T22:01:28.261Z,100666.53
2022-11-18T22:04:01.286Z,100666.81
2022-11-18T22:06:30.043Z,100664.63
2022-11-18T22:08:57.041Z,100669.69
2022-11-18T22:11:25.584Z,100665.06
2022-11-18T22:13:53.071Z,100674.06
2022-11-18T22:16:22.368Z,100668.03
2022-11-18T22:18:56.034Z,100681.84
2022-11-18T22:21:26.580Z,100674.75
2022-11-18T22:23:57.415Z,100678.09
2022-11-18T22:26:24.050Z,100669.31
2022-11-18T22:28:55.559Z,100668.00
2022-11-18T22:31:23.869Z,100666.22
2022-11-18T22:33:51.431Z,100669.94
2022-11-18T22:36:19.737Z,100665.91
2022-11-18T22:38:46.519Z,100675.38
2022-11-18T22:41:37.487Z,100670.47
2022-11-18T22:44:07.770Z,100665.94
2022-11-18T22:46:35.635Z,100674.97
2022-11-18T22:49:02.726Z,100670.84
2022-11-18T22:51:29.368Z,100672.00
2022-11-18T22:54:15.918Z,100670.03
2022-11-18T22:56:42.621Z,100673.19
2022-11-18T22:59:11.395Z,100671.06
2022-11-18T23:01:38.073Z,100674.53
2022-11-18T23:04:04.789Z,100675.16
2022-11-18T23:06:31.398Z,100672.53
2022-11-18T23:08:57.966Z,100669.88
2022-11-18T23:11:43.208Z,100674.06
2022-11-18T23:14:10.316Z,100672.31
2022-11-18T23:16:39.565Z,100669.44
2022-11-18T23:19:11.163Z,100670.69
2022-11-18T23:21:37.838Z,100677.63
2022-11-18T23:24:04.807Z,100678.91
2022-11-18T23:26:33.396Z,100677.53
2022-11-18T23:29:00.035Z,100676.91
2022-11-18T23:31:27.425Z,100680.44
2022-11-18T23:33:55.071Z,100672.81
2022-11-18T23:36:22.145Z,100673.25
2022-11-18T23:38:49.318Z,100666.84
2022-11-18T23:41:16.993Z,100673.50
2022-11-18T23:43:46.907Z,100669.34
2022-11-18T23:46:13.826Z,100675.56
2022-11-18T23:48:41.884Z,100677.56
2022-11-18T23:51:12.279Z,100675.72
2022-11-18T23:53:39.751Z,100676.75
2022-11-18T23:56:15.263Z,100670.56
2022-11-18T23:58:44.343Z,100669.09
